Accueil
METAR-TAF:

METAR-TAF

Aéroports :

Narathiwat, Thaïlande

latitude: 6-31-12N, longitude: 101-44-36E, altitude: 5 m

Observation

Le bulletin a été fait il y a 41 minutes, à 00:00 UTC
Vent 2 kt de direction variable
Température 26°C
Humidité 89%
Pression 1008 hPa
Visibilité 10 km ou plus
Quelques nuages à une hauteur de 2000 ft

METAR: VTSC 190000Z VRB02KT 9999 FEW020 26/24 Q1008 NOSIG

Heure: 07:41 (00:41 UTC)

Prévision

Le bulletin a été fait il y a 1 heure et 41 minutes, à 23:00 UTC
Prévision valable du 19 à 00 UTC au 19 à 24 UTC
Vent 5 kt de sud/sud-ouest
Visibilité 10 km ou plus
Quelques nuages à une hauteur de 2000 ft
Evoluant progressivement
du 19 à 03 UTC au 19 à 05 UTC
Vent 10 kt de nord-est
Evoluant progressivement
du 19 à 15 UTC au 19 à 17 UTC
Vent 5 kt de sud/sud-ouest

TAF: VTSC 182300Z 1900/1924 20005KT 9999 FEW020 BECMG 1903/1905 05010KT BECMG 1915/1917 20005KT

Observations et prévisions météorologiques de plus de 4000 aéroports (messages METAR et TAF).

Les stations disponibles sont représentées par des disques jaunes et rouges sur la carte.

Passer la souris dessus pour voir le nom de la station.

Cliquer dessus pour voir les observations et prévisions météorologiques.

Pour changer de carte: cliquez sur les boutons verts avec une croix noire pour zoomer, sur le bouton vert avec un tiret pour effectuer un zoom arrière, ou sur les flèches vertes pour les cartes adjacentes.


METAR-TAF: